| time (UTC) | temp F | wind direction | speed MPH | gust MPH | rain 1hr in | rain 24hr in | rain mn in | humidity % | barometer mb |
| 20260507192531 | 44 | 315 | 1.0 | 3.0 | 0.00 | 0.00 | 0.00 | 52 | 1017.7 |
| 20260507191530 | 44 | 315 | 2.0 | 4.0 | 0.00 | 0.00 | 0.00 | 51 | 1017.6 |
| 20260507190531 | 45 | 315 | 3.0 | 7.0 | 0.00 | 0.00 | 0.00 | 51 | 1017.5 |
| 20260507185531 | 45 | 315 | 3.0 | 8.0 | 0.00 | 0.00 | 0.00 | 50 | 1017.3 |
| 20260507184551 | 46 | 315 | 2.0 | 5.0 | 0.00 | 0.00 | 0.00 | 50 | 1017.2 |
| 20260507183531 | 47 | 315 | 2.0 | 5.0 | 0.00 | 0.00 | 0.00 | 48 | 1017.1 |
| 20260507182552 | 47 | 315 | 3.0 | 5.0 | 0.00 | 0.00 | 0.00 | 47 | 1017.0 |
| 20260507181531 | 48 | 293 | 5.0 | 10.0 | 0.00 | 0.00 | 0.00 | 45 | 1016.9 |
| 20260507180531 | 49 | 315 | 5.0 | 11.0 | 0.00 | 0.00 | 0.00 | 43 | 1016.8 |
| 20260507175531 | 49 | 293 | 5.0 | 12.0 | 0.00 | 0.00 | 0.00 | 41 | 1016.7 |
| 20260507174531 | 49 | 293 | 5.0 | 11.0 | 0.00 | 0.00 | 0.00 | 40 | 1016.6 |
| 20260507173531 | 50 | 315 | 6.0 | 15.0 | 0.00 | 0.00 | 0.00 | 40 | 1016.4 |
| 20260507172531 | 50 | 315 | 1.0 | 4.0 | 0.00 | 0.00 | 0.00 | 38 | 1016.3 |
| 20260507171532 | 51 | 293 | 5.0 | 14.0 | 0.00 | 0.00 | 0.00 | 37 | 1016.2 |
| 20260507170531 | 51 | 293 | 4.0 | 10.0 | 0.00 | 0.00 | 0.00 | 37 | 1016.1 |
| 20260507165552 | 52 | 293 | 3.0 | 12.0 | 0.00 | 0.00 | 0.00 | 37 | 1016.2 |
| 20260507164533 | 52 | 293 | 2.0 | 6.0 | 0.00 | 0.00 | 0.00 | 37 | 1016.1 |
| 20260507163531 | 53 | 293 | 3.0 | 10.0 | 0.00 | 0.00 | 0.00 | 35 | 1015.9 |
| 20260507162531 | 53 | 315 | 6.0 | 13.0 | 0.00 | 0.00 | 0.00 | 35 | 1015.9 |
| 20260507161531 | 53 | 270 | 8.0 | 18.0 | 0.00 | 0.00 | 0.00 | 33 | 1015.8 |
| 20260507160530 | 54 | 270 | 6.0 | 15.0 | 0.00 | 0.00 | 0.00 | 34 | 1015.6 |
| 20260507155531 | 54 | 315 | 3.0 | 9.0 | 0.00 | 0.00 | 0.00 | 35 | 1015.6 |
| 20260507154531 | 54 | 315 | 5.0 | 13.0 | 0.00 | 0.00 | 0.00 | 34 | 1015.4 |
| 20260507153532 | 54 | 293 | 2.0 | 7.0 | 0.00 | 0.00 | 0.00 | 35 | 1015.4 |
| 20260507152531 | 54 | 293 | 6.0 | 13.0 | 0.00 | 0.00 | 0.00 | 34 | 1015.4 |
| 20260507151551 | 54 | 315 | 6.0 | 14.0 | 0.00 | 0.00 | 0.00 | 34 | 1015.3 |
| 20260507150530 | 54 | 315 | 6.0 | 14.0 | 0.00 | 0.00 | 0.00 | 33 | 1015.3 |
| 20260507145530 | 54 | 315 | 4.0 | 11.0 | 0.00 | 0.00 | 0.00 | 33 | 1015.3 |
| 20260507144530 | 55 | 315 | 4.0 | 10.0 | 0.00 | 0.00 | 0.00 | 31 | 1015.2 |
| 20260507143531 | 55 | 315 | 5.0 | 12.0 | 0.00 | 0.00 | 0.00 | 32 | 1015.2 |
| 20260507142530 | 54 | 315 | 2.0 | 5.0 | 0.00 | 0.00 | 0.00 | 31 | 1015.1 |
| 20260507141551 | 54 | 293 | 3.0 | 9.0 | 0.00 | 0.00 | 0.00 | 29 | 1015.1 |
| 20260507140530 | 55 | 293 | 4.0 | 11.0 | 0.00 | 0.00 | 0.00 | 29 | 1015.1 |
| 20260507135531 | 55 | 270 | 4.0 | 11.0 | 0.00 | 0.00 | 0.00 | 28 | 1015.1 |
| 20260507134531 | 55 | 293 | 5.0 | 11.0 | 0.00 | 0.00 | 0.00 | 28 | 1015.0 |
| 20260507133551 | 55 | 315 | 1.0 | 9.0 | 0.00 | 0.00 | 0.00 | 29 | 1015.0 |
| 20260507132531 | 55 | 293 | 2.0 | 6.0 | 0.00 | 0.00 | 0.00 | 29 | 1015.1 |
| 20260507131531 | 55 | 293 | 4.0 | 12.0 | 0.00 | 0.00 | 0.00 | 27 | 1015.1 |
| 20260507130530 | 56 | 338 | 7.0 | 11.0 | 0.00 | 0.00 | 0.00 | 27 | 1015.0 |
| 20260507125531 | 55 | 315 | 7.0 | 12.0 | 0.00 | 0.00 | 0.00 | 30 | 1015.1 |
| 20260507124531 | 55 | 338 | 4.0 | 10.0 | 0.00 | 0.00 | 0.00 | 27 | 1015.1 |
| 20260507123530 | 55 | 293 | 3.0 | 13.0 | 0.00 | 0.00 | 0.00 | 27 | 1015.1 |
| 20260507122531 | 54 | 293 | 3.0 | 10.0 | 0.00 | 0.00 | 0.00 | 29 | 1015.1 |
| 20260507121611 | 54 | 293 | 3.0 | 10.0 | 0.00 | 0.00 | 0.00 | 29 | 1015.1 |
| 20260507120531 | 54 | 158 | 3.0 | 8.0 | 0.00 | 0.00 | 0.00 | 31 | 1015.1 |
| 20260507115551 | 54 | 158 | 3.0 | 8.0 | 0.00 | 0.00 | 0.00 | 32 | 1015.1 |
| 20260507114531 | 54 | 158 | 3.0 | 10.0 | 0.00 | 0.00 | 0.00 | 33 | 1015.2 |
| 20260507113531 | 54 | 158 | 8.0 | 12.0 | 0.00 | 0.00 | 0.00 | 32 | 1015.2 |
| 20260507112530 | 53 | 158 | 5.0 | 10.0 | 0.00 | 0.00 | 0.00 | 31 | 1015.1 |
| 20260507111530 | 54 | 158 | 5.0 | 9.0 | 0.00 | 0.00 | 0.00 | 31 | 1015.2 |
| 20260507110530 | 53 | 135 | 6.0 | 12.0 | 0.00 | 0.00 | 0.00 | 30 | 1015.1 |
| 20260507105532 | 53 | 158 | 7.0 | 11.0 | 0.00 | 0.00 | 0.00 | 30 | 1015.1 |
| 20260507104551 | 53 | 158 | 6.0 | 11.0 | 0.00 | 0.00 | 0.00 | 29 | 1015.2 |
| 20260507103531 | 53 | 180 | 4.0 | 8.0 | 0.00 | 0.00 | 0.00 | 30 | 1015.3 |
| 20260507102530 | 53 | 158 | 5.0 | 11.0 | 0.00 | 0.00 | 0.00 | 29 | 1015.3 |
| 20260507101554 | 53 | 158 | 3.0 | 8.0 | 0.00 | 0.00 | 0.00 | 34 | 1015.4 |
| 20260507100532 | 53 | 158 | 6.0 | 10.0 | 0.00 | 0.00 | 0.00 | 32 | 1015.4 |
| 20260507095530 | 53 | 158 | 4.0 | 10.0 | 0.00 | 0.00 | 0.00 | 32 | 1015.4 |
| 20260507094532 | 53 | 180 | 5.0 | 7.0 | 0.00 | 0.00 | 0.00 | 36 | 1015.4 |
| 20260507093531 | 53 | 180 | 3.0 | 7.0 | 0.00 | 0.00 | 0.00 | 35 | 1015.5 |
| 20260507092551 | 52 | 180 | 2.0 | 5.0 | 0.00 | 0.00 | 0.00 | 35 | 1015.5 |
| 20260507091551 | 52 | 203 | 4.0 | 6.0 | 0.00 | 0.00 | 0.00 | 36 | 1015.6 |
| 20260507090531 | 51 | 203 | 1.0 | 5.0 | 0.00 | 0.00 | 0.00 | 33 | 1015.7 |
| 20260507085532 | 51 | 203 | 2.0 | 4.0 | 0.00 | 0.00 | 0.00 | 35 | 1015.8 |
| 20260507084530 | 51 | 203 | 2.0 | 4.0 | 0.00 | 0.00 | 0.00 | 33 | 1015.8 |
| 20260507083551 | 51 | 203 | 3.0 | 5.0 | 0.00 | 0.00 | 0.00 | 37 | 1015.9 |
| 20260507082551 | 51 | 203 | 2.0 | 4.0 | 0.00 | 0.00 | 0.00 | 40 | 1015.9 |
| 20260507081531 | 50 | 203 | 3.0 | 6.0 | 0.00 | 0.00 | 0.00 | 38 | 1015.9 |
| 20260507080531 | 50 | 203 | 3.0 | 8.0 | 0.00 | 0.00 | 0.00 | 38 | 1015.9 |
| 20260507075530 | 49 | 225 | 1.0 | 5.0 | 0.00 | 0.00 | 0.00 | 43 | 1016.0 |
| 20260507074531 | 49 | 225 | 4.0 | 6.0 | 0.00 | 0.00 | 0.00 | 42 | 1016.0 |
| 20260507073533 | 49 | 248 | 2.0 | 5.0 | 0.00 | 0.00 | 0.00 | 45 | 1016.0 |
| 20260507072531 | 48 | 248 | 1.0 | 5.0 | 0.00 | 0.00 | 0.00 | 48 | 1016.0 |
| 20260507071531 | 48 | 248 | 1.0 | 5.0 | 0.00 | 0.00 | 0.00 | 52 | 1016.0 |
| 20260507070531 | 48 | 248 | 2.0 | 4.0 | 0.00 | 0.00 | 0.00 | 55 | 1016.0 |
| 20260507065532 | 48 | 248 | 2.0 | 4.0 | 0.00 | 0.00 | 0.00 | 55 | 1016.0 |
| 20260507064530 | 47 | 248 | 2.0 | 4.0 | 0.00 | 0.00 | 0.00 | 56 | 1016.0 |
| 20260507063550 | 46 | 248 | 1.0 | 4.0 | 0.00 | 0.00 | 0.00 | 58 | 1016.0 |
| 20260507062531 | 46 | 248 | 2.0 | 4.0 | 0.00 | 0.00 | 0.00 | 60 | 1016.0 |
| 20260507061532 | 44 | 270 | 1.0 | 4.0 | 0.00 | 0.00 | 0.00 | 62 | 1016.0 |
| 20260507060531 | 43 | 0.0 | 2.0 | 0.00 | 0.00 | 0.00 | 59 | 1016.0 | |
| 20260507055531 | 43 | 0.0 | 0.0 | 0.00 | 0.00 | 0.00 | 60 | 1015.9 | |
| 20260507054530 | 44 | 0.0 | 0.0 | 0.00 | 0.00 | 0.00 | 57 | 1016.0 | |
| 20260507053551 | 45 | 0.0 | 3.0 | 0.00 | 0.00 | 0.00 | 54 | 1016.0 | |
| 20260507052610 | 44 | 270 | 1.0 | 4.0 | 0.00 | 0.00 | 0.00 | 58 | 1016.0 |
| 20260507051532 | 42 | 270 | 1.0 | 4.0 | 0.00 | 0.00 | 0.00 | 62 | 1016.0 |
| 20260507050530 | 40 | 270 | 1.0 | 6.0 | 0.00 | 0.00 | 0.00 | 67 | 1016.0 |
| 20260507045530 | 36 | 270 | 1.0 | 4.0 | 0.00 | 0.00 | 0.00 | 76 | 1016.0 |
| 20260507044610 | 34 | 0.0 | 0.0 | 0.00 | 0.00 | 0.00 | 77 | 1016.0 | |
| 20260507043530 | 33 | 0.0 | 0.0 | 0.00 | 0.00 | 0.00 | 78 | 1016.0 | |
| 20260507042551 | 32 | 0.0 | 0.0 | 0.00 | 0.00 | 0.00 | 79 | 1016.0 | |
| 20260507041532 | 31 | 0.0 | 0.0 | 0.00 | 0.00 | 0.00 | 78 | 1016.0 | |
| 20260507040551 | 31 | 0.0 | 0.0 | 0.00 | 0.00 | 0.00 | 76 | 1016.0 | |
| 20260507035531 | 30 | 0.0 | 0.0 | 0.00 | 0.00 | 0.00 | 70 | 1016.0 | |
| 20260507034531 | 29 | 0.0 | 0.0 | 0.00 | 0.00 | 0.00 | 68 | 1015.9 | |
| 20260507033550 | 28 | 0.0 | 0.0 | 0.00 | 0.00 | 0.00 | 66 | 1015.9 | |
| 20260507032531 | 27 | 0.0 | 0.0 | 0.00 | 0.00 | 0.00 | 67 | 1015.9 | |
| 20260507031531 | 26 | 0.0 | 0.0 | 0.00 | 0.00 | 0.00 | 68 | 1015.9 | |
| 20260507030530 | 25 | 0.0 | 0.0 | 0.00 | 0.00 | 0.00 | 70 | 1015.9 | |
| 20260507025531 | 25 | 270 | 2.0 | 3.0 | 0.00 | 0.00 | 0.00 | 72 | 1015.9 |
| 20260507024531 | 24 | 270 | 2.0 | 3.0 | 0.00 | 0.00 | 0.00 | 73 | 1015.9 |
| 20260507023531 | 24 | 270 | 2.0 | 2.0 | 0.00 | 0.00 | 0.00 | 74 | 1015.9 |
| 20260507022531 | 24 | 270 | 2.0 | 2.0 | 0.00 | 0.00 | 0.00 | 74 | 1015.8 |
| 20260507021531 | 24 | 270 | 2.0 | 3.0 | 0.00 | 0.00 | 0.00 | 75 | 1015.8 |
| 20260507020531 | 24 | 270 | 2.0 | 2.0 | 0.00 | 0.00 | 0.00 | 75 | 1015.8 |
| 20260507015611 | 24 | 270 | 2.0 | 3.0 | 0.00 | 0.00 | 0.00 | 76 | 1015.6 |
| 20260507014531 | 24 | 270 | 2.0 | 3.0 | 0.00 | 0.00 | 0.00 | 76 | 1015.6 |
| 20260507013531 | 24 | 270 | 1.0 | 2.0 | 0.00 | 0.00 | 0.00 | 76 | 1015.6 |
| 20260507012531 | 25 | 270 | 1.0 | 2.0 | 0.00 | 0.00 | 0.00 | 77 | 1015.5 |
| 20260507011531 | 25 | 270 | 1.0 | 2.0 | 0.00 | 0.00 | 0.00 | 77 | 1015.4 |
| 20260507010531 | 25 | 0.0 | 1.0 | 0.00 | 0.00 | 0.00 | 78 | 1015.5 | |
| 20260507005611 | 25 | 270 | 1.0 | 2.0 | 0.00 | 0.00 | 0.00 | 78 | 1015.3 |
| 20260507004551 | 25 | 0.0 | 2.0 | 0.00 | 0.00 | 0.00 | 78 | 1015.3 | |
| 20260507003531 | 25 | 0.0 | 2.0 | 0.00 | 0.00 | 0.00 | 79 | 1015.2 | |
| 20260507002531 | 25 | 270 | 2.0 | 2.0 | 0.00 | 0.00 | 0.00 | 79 | 1015.2 |
| 20260507001531 | 25 | 270 | 2.0 | 3.0 | 0.00 | 0.00 | 0.00 | 80 | 1015.0 |
| 20260507000533 | 26 | 270 | 2.0 | 3.0 | 0.00 | 0.00 | 0.00 | 80 | 1015.0 |
| 20260506235531 | 26 | 270 | 2.0 | 3.0 | 0.00 | 0.00 | 0.00 | 80 | 1014.9 |
| 20260506234531 | 26 | 270 | 1.0 | 2.0 | 0.00 | 0.00 | 0.00 | 80 | 1014.9 |
| 20260506233532 | 26 | 270 | 2.0 | 2.0 | 0.00 | 0.00 | 0.00 | 80 | 1014.8 |
| 20260506232536 | 27 | 270 | 2.0 | 3.0 | 0.00 | 0.00 | 0.00 | 80 | 1014.8 |
| 20260506231530 | 27 | 270 | 2.0 | 2.0 | 0.00 | 0.00 | 0.00 | 80 | 1014.8 |
| 20260506230531 | 27 | 270 | 1.0 | 2.0 | 0.00 | 0.00 | 0.00 | 80 | 1014.7 |
| 20260506225531 | 28 | 270 | 2.0 | 2.0 | 0.00 | 0.00 | 0.00 | 80 | 1014.7 |
| 20260506224531 | 28 | 270 | 2.0 | 2.0 | 0.00 | 0.00 | 0.00 | 79 | 1014.7 |
| 20260506223531 | 28 | 270 | 2.0 | 3.0 | 0.00 | 0.00 | 0.00 | 79 | 1014.7 |
| 20260506222531 | 29 | 0.0 | 0.0 | 0.00 | 0.00 | 0.00 | 78 | 1014.6 | |
| 20260506221531 | 29 | 0.0 | 0.0 | 0.00 | 0.00 | 0.00 | 78 | 1014.5 | |
| 20260506220531 | 29 | 0.0 | 2.0 | 0.00 | 0.00 | 0.00 | 78 | 1014.4 | |
| 20260506215531 | 29 | 0.0 | 0.0 | 0.00 | 0.00 | 0.00 | 77 | 1014.4 | |
| 20260506214531 | 30 | 0.0 | 0.0 | 0.00 | 0.00 | 0.00 | 77 | 1014.3 | |
| 20260506213531 | 29 | 0.0 | 0.0 | 0.00 | 0.00 | 0.00 | 78 | 1014.2 | |
| 20260506212611 | 30 | 0.0 | 0.0 | 0.00 | 0.00 | 0.00 | 77 | 1014.2 | |
| 20260506211531 | 30 | 0.0 | 0.0 | 0.00 | 0.00 | 0.00 | 76 | 1014.2 | |
| 20260506210531 | 30 | 0.0 | 0.0 | 0.00 | 0.00 | 0.00 | 76 | 1014.2 | |
| 20260506205531 | 30 | 0.0 | 0.0 | 0.00 | 0.00 | 0.00 | 75 | 1014.0 | |
| 20260506204531 | 31 | 0.0 | 0.0 | 0.00 | 0.00 | 0.00 | 75 | 1014.0 | |
| 20260506203531 | 32 | 270 | 2.0 | 3.0 | 0.00 | 0.00 | 0.00 | 71 | 1014.0 |
| 20260506202531 | 33 | 0.0 | 3.0 | 0.00 | 0.00 | 0.00 | 68 | 1014.0 | |
| 20260506201531 | 35 | 270 | 1.0 | 4.0 | 0.00 | 0.00 | 0.00 | 65 | 1013.9 |
| 20260506200531 | 35 | 270 | 2.0 | 4.0 | 0.00 | 0.00 | 0.00 | 65 | 1013.9 |
| 20260506195530 | 35 | 270 | 2.0 | 3.0 | 0.00 | 0.00 | 0.00 | 65 | 1013.9 |
| 20260506194531 | 36 | 270 | 3.0 | 4.0 | 0.00 | 0.00 | 0.00 | 61 | 1013.8 |
| 20260506193531 | 36 | 270 | 3.0 | 4.0 | 0.00 | 0.00 | 0.00 | 63 | 1013.7 |